Terminal Aerodrome Forecast
Issued by NWS

Home | Current Version | Previous Version | Text Only | Print | Product List | Glossary On
Versions: 1 2 3 4 5 6 7 8 9 10 11 12 13 14 15 16 17 18 19 20 21
000
FTUS43 KLSX 150849 AAB
TAFSUS
TAF AMD
KSUS 150849Z 1509/1606 22012G20KT 4SM -SHRA VCTS OVC035CB
     FM150940 28015G24KT 4SM SHRA SCT015 OVC025
      TEMPO 1510/1514 BKN015
     FM151400 30016G24KT P6SM OVC025
     FM151700 31015G23KT P6SM SCT045=

USA.gov is the U.S. government's official web portal to all federal, state and local government web resources and services.